createdAt,value
2022-08-23T00:00:13.952Z,1.10
2022-08-23T00:01:13.942Z,0.80
2022-08-23T00:02:23.878Z,1.10
2022-08-23T00:03:14.998Z,1.00
2022-08-23T00:04:13.919Z,1.00
2022-08-23T00:05:13.919Z,1.10
2022-08-23T00:06:13.890Z,1.20
2022-08-23T00:07:13.904Z,1.40
2022-08-23T00:08:13.879Z,1.30
2022-08-23T00:09:13.879Z,1.20
2022-08-23T00:10:14.047Z,1.30
2022-08-23T00:11:13.836Z,1.20
2022-08-23T00:12:13.812Z,1.20
2022-08-23T00:13:13.814Z,1.20
2022-08-23T00:14:13.795Z,1.10
2022-08-23T00:15:13.818Z,1.10
2022-08-23T00:16:13.781Z,1.20
2022-08-23T00:17:33.278Z,1.10
2022-08-23T00:18:14.765Z,1.10
2022-08-23T00:19:13.756Z,1.20
2022-08-23T00:20:13.729Z,1.50
2022-08-23T00:21:13.747Z,1.00
2022-08-23T00:22:13.720Z,1.20
2022-08-23T00:23:13.730Z,1.00
2022-08-23T00:24:13.690Z,1.20
2022-08-23T00:25:14.422Z,1.30
2022-08-23T00:26:14.417Z,1.20
2022-08-23T00:27:13.965Z,1.10
2022-08-23T00:28:14.834Z,1.20
2022-08-23T00:29:13.639Z,0.90
2022-08-23T00:30:16.422Z,1.00
2022-08-23T00:31:13.616Z,1.10
2022-08-23T00:32:13.605Z,1.30
2022-08-23T00:33:13.984Z,1.30
2022-08-23T00:34:13.589Z,1.40
2022-08-23T00:35:26.292Z,1.00
2022-08-23T00:36:14.567Z,1.50
2022-08-23T00:37:13.556Z,1.10
2022-08-23T00:38:32.402Z,1.20
2022-08-23T00:39:15.454Z,1.10
2022-08-23T00:40:13.618Z,1.80
2022-08-23T00:41:13.512Z,1.10
2022-08-23T00:42:13.498Z,1.60
2022-08-23T00:43:14.424Z,1.10
2022-08-23T00:44:13.466Z,1.10
2022-08-23T00:45:13.470Z,1.20
2022-08-23T00:46:14.436Z,1.00
2022-08-23T00:47:13.438Z,1.30
2022-08-23T00:48:13.416Z,1.10
2022-08-23T00:49:13.403Z,1.30
2022-08-23T00:50:23.864Z,1.20
2022-08-23T00:51:14.457Z,1.30
2022-08-23T00:52:13.389Z,1.30
2022-08-23T00:53:13.928Z,1.50
2022-08-23T00:54:13.355Z,1.30
2022-08-23T00:55:13.360Z,1.20
2022-08-23T00:56:13.340Z,1.10
2022-08-23T00:57:13.927Z,1.40
2022-08-23T00:58:13.313Z,1.30
2022-08-23T00:59:13.931Z,1.00
2022-08-23T01:00:13.313Z,1.10
2022-08-23T01:01:13.927Z,1.10
2022-08-23T01:02:13.364Z,1.00
2022-08-23T01:03:13.253Z,1.10
2022-08-23T01:04:13.267Z,1.10
2022-08-23T01:05:13.937Z,1.10
2022-08-23T01:06:13.926Z,1.10
2022-08-23T01:07:13.215Z,1.20
2022-08-23T01:08:13.197Z,1.20
2022-08-23T01:09:13.190Z,1.10
2022-08-23T01:10:20.099Z,0.90
2022-08-23T01:11:14.178Z,1.10
2022-08-23T01:12:13.939Z,1.30
2022-08-23T01:13:13.169Z,1.10
2022-08-23T01:14:13.927Z,1.10
2022-08-23T01:15:13.131Z,1.10
2022-08-23T01:16:13.139Z,1.10
2022-08-23T01:17:13.941Z,1.10
2022-08-23T01:18:13.089Z,1.10
2022-08-23T01:19:19.928Z,1.20
2022-08-23T01:20:13.078Z,1.20
2022-08-23T01:21:13.067Z,1.10
2022-08-23T01:22:13.066Z,1.20
2022-08-23T01:23:13.047Z,1.00
2022-08-23T01:24:19.267Z,1.20
2022-08-23T01:25:14.934Z,1.00
2022-08-23T01:26:13.010Z,1.10
2022-08-23T01:27:13.954Z,1.30
2022-08-23T01:28:13.004Z,1.60
2022-08-23T01:29:12.983Z,0.90
2022-08-23T01:30:12.971Z,1.50
2022-08-23T01:31:13.944Z,1.30
2022-08-23T01:32:19.933Z,1.10
2022-08-23T01:33:12.939Z,1.30
2022-08-23T01:34:12.935Z,1.10
2022-08-23T01:35:12.966Z,1.20
2022-08-23T01:36:12.925Z,1.10
2022-08-23T01:37:12.896Z,1.00
2022-08-23T01:38:12.904Z,1.30
2022-08-23T01:39:12.870Z,1.20
2022-08-23T01:40:19.502Z,1.10
2022-08-23T01:41:12.868Z,1.10
2022-08-23T01:42:12.850Z,1.10
2022-08-23T01:43:13.428Z,1.20
2022-08-23T01:44:12.827Z,1.00
2022-08-23T01:45:13.445Z,1.10
2022-08-23T01:46:12.809Z,1.20
2022-08-23T01:47:12.796Z,1.10
2022-08-23T01:48:12.774Z,1.20
2022-08-23T01:49:12.772Z,1.10
2022-08-23T01:50:12.751Z,1.10
2022-08-23T01:51:12.770Z,0.90
2022-08-23T01:52:13.438Z,1.20
2022-08-23T01:53:12.726Z,1.20
2022-08-23T01:54:19.438Z,1.10
2022-08-23T01:55:12.712Z,1.20
2022-08-23T01:56:12.690Z,1.10
2022-08-23T01:57:12.970Z,1.00
2022-08-23T01:58:12.687Z,1.10
2022-08-23T01:59:12.668Z,1.00
2022-08-23T02:00:12.653Z,1.20
2022-08-23T02:01:12.688Z,1.10
2022-08-23T02:02:12.629Z,1.20
2022-08-23T02:03:19.449Z,1.20
2022-08-23T02:04:12.620Z,1.20
2022-08-23T02:05:18.382Z,1.10
2022-08-23T02:06:12.591Z,1.20
2022-08-23T02:07:12.577Z,1.00
2022-08-23T02:08:12.563Z,1.00
2022-08-23T02:09:17.886Z,1.10
2022-08-23T02:10:13.546Z,1.10
2022-08-23T02:11:12.624Z,1.20
2022-08-23T02:12:12.525Z,1.10
2022-08-23T02:13:12.523Z,1.00
2022-08-23T02:14:13.438Z,1.10
2022-08-23T02:15:12.522Z,1.40
2022-08-23T02:16:15.446Z,1.00
2022-08-23T02:17:12.466Z,1.00
2022-08-23T02:18:13.466Z,1.10
2022-08-23T02:19:12.457Z,1.30
2022-08-23T02:20:12.459Z,1.10
2022-08-23T02:21:12.430Z,1.20
2022-08-23T02:22:12.938Z,1.10
2022-08-23T02:23:12.403Z,1.00
2022-08-23T02:24:12.388Z,1.10
2022-08-23T02:25:12.383Z,1.20
2022-08-23T02:26:12.468Z,1.20
2022-08-23T02:27:12.355Z,1.20
2022-08-23T02:28:12.345Z,1.00
2022-08-23T02:29:12.339Z,1.20
2022-08-23T02:30:12.332Z,1.00
2022-08-23T02:31:12.308Z,0.90
2022-08-23T02:32:12.471Z,1.10
2022-08-23T02:33:12.949Z,1.20
2022-08-23T02:34:14.944Z,1.20
2022-08-23T02:35:18.953Z,1.00
2022-08-23T02:36:12.304Z,1.00
2022-08-23T02:37:12.252Z,1.20
2022-08-23T02:38:12.257Z,1.20
2022-08-23T02:39:12.231Z,1.10
2022-08-23T02:40:12.618Z,1.10
2022-08-23T02:41:12.207Z,1.40
2022-08-23T02:42:12.944Z,1.00
2022-08-23T02:43:12.942Z,1.10
2022-08-23T02:44:13.228Z,1.00
2022-08-23T02:45:12.157Z,1.20
2022-08-23T02:46:12.150Z,1.10
2022-08-23T02:47:12.124Z,1.10
2022-08-23T02:48:12.153Z,1.20
2022-08-23T02:49:12.107Z,1.10
2022-08-23T02:50:12.134Z,1.10
2022-08-23T02:51:12.088Z,1.10
2022-08-23T02:52:12.089Z,1.20
2022-08-23T02:53:12.066Z,1.20
2022-08-23T02:54:12.060Z,1.00
2022-08-23T02:55:12.062Z,1.30
2022-08-23T02:56:17.084Z,1.20
2022-08-23T02:57:13.038Z,1.10
2022-08-23T02:58:12.019Z,1.00
2022-08-23T02:59:12.005Z,1.00
2022-08-23T03:00:12.000Z,1.30
2022-08-23T03:01:11.994Z,1.30
2022-08-23T03:02:12.057Z,1.20
2022-08-23T03:03:11.961Z,1.30
2022-08-23T03:04:11.945Z,1.10
2022-08-23T03:05:11.934Z,1.10
2022-08-23T03:06:24.651Z,1.20
2022-08-23T03:07:12.910Z,1.50
2022-08-23T03:08:14.456Z,1.20
2022-08-23T03:09:11.885Z,1.50
2022-08-23T03:10:11.932Z,1.20
2022-08-23T03:11:11.866Z,1.30
2022-08-23T03:12:12.446Z,1.30
2022-08-23T03:13:14.448Z,1.10
2022-08-23T03:14:18.463Z,1.10
2022-08-23T03:15:14.457Z,1.20
2022-08-23T03:16:11.982Z,1.20
2022-08-23T03:17:12.463Z,1.00
2022-08-23T03:18:11.808Z,1.20
2022-08-23T03:19:11.782Z,1.10
2022-08-23T03:20:11.782Z,1.20
2022-08-23T03:21:11.761Z,1.20
2022-08-23T03:22:11.765Z,1.30
2022-08-23T03:23:11.748Z,0.90
2022-08-23T03:24:11.984Z,1.40
2022-08-23T03:25:11.720Z,1.10
2022-08-23T03:26:11.711Z,1.20
2022-08-23T03:27:11.704Z,1.30
2022-08-23T03:28:11.692Z,1.10
2022-08-23T03:29:11.686Z,1.10
2022-08-23T03:30:19.162Z,1.40
2022-08-23T03:31:12.663Z,1.20
2022-08-23T03:32:11.671Z,1.20
2022-08-23T03:33:11.626Z,1.20
2022-08-23T03:34:11.630Z,1.10
2022-08-23T03:35:14.411Z,1.50
2022-08-23T03:36:12.463Z,1.20
2022-08-23T03:37:11.597Z,1.10
2022-08-23T03:38:11.982Z,1.20
2022-08-23T03:39:12.461Z,1.30
2022-08-23T03:40:11.659Z,1.40
2022-08-23T03:41:11.547Z,1.30
2022-08-23T03:42:12.459Z,1.30
2022-08-23T03:43:11.518Z,1.20
2022-08-23T03:44:11.527Z,1.10
2022-08-23T03:45:18.465Z,1.40
2022-08-23T03:46:18.459Z,1.30
2022-08-23T03:47:14.469Z,1.30
2022-08-23T03:48:14.458Z,1.30
2022-08-23T03:49:11.494Z,1.20
2022-08-23T03:50:11.457Z,1.40
2022-08-23T03:51:13.963Z,1.30
2022-08-23T03:52:11.969Z,1.10
2022-08-23T03:53:12.121Z,1.70
2022-08-23T03:54:11.422Z,1.20
2022-08-23T03:55:11.387Z,1.10
2022-08-23T03:56:11.424Z,1.30
2022-08-23T03:57:11.369Z,1.30
2022-08-23T03:58:11.367Z,1.20
2022-08-23T03:59:11.338Z,1.20
2022-08-23T04:00:11.361Z,1.30
2022-08-23T04:01:11.320Z,1.40
2022-08-23T04:02:11.396Z,1.40
2022-08-23T04:03:11.320Z,1.30
2022-08-23T04:04:11.965Z,1.30
2022-08-23T04:05:11.301Z,1.40
2022-08-23T04:06:11.288Z,1.20
2022-08-23T04:07:11.286Z,1.40
2022-08-23T04:08:11.246Z,1.50
2022-08-23T04:09:11.247Z,1.30
2022-08-23T04:10:11.240Z,1.30
2022-08-23T04:11:11.214Z,1.20
2022-08-23T04:12:17.552Z,1.20
2022-08-23T04:13:11.965Z,1.40
2022-08-23T04:14:11.202Z,1.50
2022-08-23T04:15:13.986Z,1.20
2022-08-23T04:16:17.970Z,1.30
2022-08-23T04:17:11.173Z,1.30
2022-08-23T04:18:11.154Z,1.20
2022-08-23T04:19:11.129Z,1.30
2022-08-23T04:20:11.125Z,1.30
2022-08-23T04:21:11.129Z,1.30
2022-08-23T04:22:11.096Z,1.20
2022-08-23T04:23:11.081Z,1.10
2022-08-23T04:24:11.071Z,1.20
2022-08-23T04:25:14.082Z,1.50
2022-08-23T04:26:12.492Z,1.30
2022-08-23T04:27:11.039Z,1.20
2022-08-23T04:28:11.032Z,1.10
2022-08-23T04:29:11.010Z,1.30
2022-08-23T04:30:11.999Z,1.30
2022-08-23T04:31:11.009Z,1.20
2022-08-23T04:32:12.108Z,1.20
2022-08-23T04:33:13.296Z,1.40
2022-08-23T04:34:11.984Z,1.30
2022-08-23T04:35:10.968Z,1.40
2022-08-23T04:36:10.956Z,1.30
2022-08-23T04:37:10.931Z,1.20
2022-08-23T04:38:24.752Z,1.30
2022-08-23T04:39:11.906Z,1.30
2022-08-23T04:40:11.010Z,1.30
2022-08-23T04:41:11.388Z,1.30
2022-08-23T04:42:14.680Z,1.20
2022-08-23T04:43:10.857Z,1.50
2022-08-23T04:44:10.856Z,1.40
2022-08-23T04:45:10.839Z,1.50
2022-08-23T04:46:10.857Z,1.30
2022-08-23T04:47:10.813Z,1.20
2022-08-23T04:48:12.006Z,1.60
2022-08-23T04:49:10.822Z,1.70
2022-08-23T04:50:10.789Z,1.40
2022-08-23T04:51:10.785Z,1.60
2022-08-23T04:52:18.614Z,1.80
2022-08-23T04:53:11.778Z,1.70
2022-08-23T04:54:10.743Z,1.40
2022-08-23T04:55:12.469Z,1.60
2022-08-23T04:56:10.715Z,1.40
2022-08-23T04:57:10.714Z,1.60
2022-08-23T04:58:10.715Z,1.50
2022-08-23T04:59:12.979Z,1.40
2022-08-23T05:00:10.688Z,1.60
2022-08-23T05:01:13.508Z,1.40
2022-08-23T05:02:11.700Z,1.60
2022-08-23T05:03:10.638Z,2.00
2022-08-23T05:04:10.651Z,1.80
2022-08-23T05:05:10.640Z,2.00
2022-08-23T05:06:10.624Z,1.70
2022-08-23T05:07:10.595Z,1.40
2022-08-23T05:08:10.598Z,1.30
2022-08-23T05:09:10.603Z,1.40
2022-08-23T05:10:10.594Z,1.90
2022-08-23T05:11:10.564Z,1.70
2022-08-23T05:12:13.467Z,1.40
2022-08-23T05:13:10.540Z,1.40
2022-08-23T05:14:10.527Z,1.40
2022-08-23T05:15:11.010Z,1.40
2022-08-23T05:16:13.487Z,1.60
2022-08-23T05:17:10.499Z,1.40
2022-08-23T05:18:10.486Z,1.30
2022-08-23T05:19:12.977Z,1.40
2022-08-23T05:20:12.974Z,1.60
2022-08-23T05:21:10.467Z,1.50
2022-08-23T05:22:10.442Z,1.50
2022-08-23T05:23:10.427Z,1.30
2022-08-23T05:24:13.829Z,1.40
2022-08-23T05:25:10.972Z,1.30
2022-08-23T05:26:10.402Z,1.00
2022-08-23T05:27:13.483Z,1.20
2022-08-23T05:28:12.973Z,1.60
2022-08-23T05:29:10.372Z,1.40
2022-08-23T05:30:15.114Z,1.20
2022-08-23T05:31:11.903Z,1.50
2022-08-23T05:32:10.349Z,1.40
2022-08-23T05:33:10.311Z,1.40
2022-08-23T05:34:10.514Z,1.30
2022-08-23T05:35:10.299Z,1.40
2022-08-23T05:36:10.287Z,1.40
2022-08-23T05:37:10.279Z,1.30
2022-08-23T05:38:10.270Z,1.90
2022-08-23T05:39:10.505Z,1.40
2022-08-23T05:40:10.622Z,1.10
2022-08-23T05:41:10.988Z,1.30
2022-08-23T05:42:10.215Z,1.20
2022-08-23T05:43:10.212Z,1.30
2022-08-23T05:44:12.977Z,1.40
2022-08-23T05:45:10.195Z,1.30
2022-08-23T05:46:13.473Z,1.30
2022-08-23T05:47:11.598Z,1.10
2022-08-23T05:48:10.152Z,1.60
2022-08-23T05:49:12.978Z,1.50
2022-08-23T05:50:15.492Z,1.30
2022-08-23T05:51:10.124Z,1.30
2022-08-23T05:52:12.981Z,1.50
2022-08-23T05:53:10.123Z,1.40
2022-08-23T05:54:10.978Z,1.20
2022-08-23T05:55:10.082Z,1.40
2022-08-23T05:56:10.508Z,1.80
2022-08-23T05:57:11.008Z,1.30
2022-08-23T05:58:10.037Z,2.10
2022-08-23T05:59:12.454Z,1.50
2022-08-23T06:00:12.999Z,1.30
2022-08-23T06:01:10.044Z,1.50
2022-08-23T06:02:10.001Z,1.40
2022-08-23T06:03:10.004Z,1.50
2022-08-23T06:04:24.480Z,1.50
2022-08-23T06:05:12.484Z,1.60
2022-08-23T06:06:09.963Z,1.60
2022-08-23T06:07:10.008Z,1.30
2022-08-23T06:08:09.965Z,1.70
2022-08-23T06:09:16.473Z,1.50
2022-08-23T06:10:16.201Z,1.30
2022-08-23T06:11:09.896Z,1.10
2022-08-23T06:12:09.897Z,1.70
2022-08-23T06:13:09.880Z,1.40
2022-08-23T06:14:09.944Z,1.30
2022-08-23T06:15:09.885Z,1.20
2022-08-23T06:16:14.336Z,1.40
2022-08-23T06:17:10.836Z,1.40
2022-08-23T06:18:16.485Z,1.30
2022-08-23T06:19:10.009Z,1.30
2022-08-23T06:20:09.869Z,1.10
2022-08-23T06:21:12.485Z,1.30
2022-08-23T06:22:12.482Z,1.30
2022-08-23T06:23:11.219Z,1.20
2022-08-23T06:24:12.489Z,1.00
2022-08-23T06:25:10.057Z,1.20
2022-08-23T06:26:09.753Z,1.10
2022-08-23T06:27:09.760Z,1.00
2022-08-23T06:28:10.506Z,1.20
2022-08-23T06:29:09.819Z,1.60
2022-08-23T06:30:11.934Z,1.00
2022-08-23T06:31:09.748Z,1.10
2022-08-23T06:32:09.755Z,1.30
2022-08-23T06:33:10.500Z,1.00
2022-08-23T06:34:09.788Z,1.00
2022-08-23T06:35:29.252Z,1.10
2022-08-23T06:36:13.481Z,1.20
2022-08-23T06:37:09.653Z,1.20
2022-08-23T06:38:09.610Z,1.10
2022-08-23T06:39:09.606Z,1.20
2022-08-23T06:40:09.651Z,1.10
2022-08-23T06:41:09.566Z,0.90
2022-08-23T06:42:36.592Z,0.90
2022-08-23T06:43:10.558Z,1.10
2022-08-23T06:44:10.509Z,1.20
2022-08-23T06:45:10.484Z,1.00
2022-08-23T06:46:12.502Z,1.00
2022-08-23T06:47:09.533Z,1.00
2022-08-23T06:48:09.535Z,1.10
2022-08-23T06:49:09.995Z,1.10
2022-08-23T06:50:09.992Z,1.10
2022-08-23T06:51:09.463Z,1.10
2022-08-23T06:52:09.454Z,1.00
2022-08-23T06:53:10.062Z,0.90
2022-08-23T06:54:09.428Z,0.80
2022-08-23T06:55:13.628Z,0.80
2022-08-23T06:56:09.994Z,1.00
2022-08-23T06:57:09.398Z,1.00
2022-08-23T06:58:15.989Z,0.90
2022-08-23T06:59:09.396Z,1.30
2022-08-23T07:00:09.525Z,1.10
2022-08-23T07:01:23.276Z,1.30
2022-08-23T07:02:10.422Z,0.80
2022-08-23T07:03:09.432Z,0.80
2022-08-23T07:04:09.321Z,1.20
2022-08-23T07:05:09.339Z,1.10
2022-08-23T07:06:09.512Z,0.80
2022-08-23T07:07:11.542Z,1.30
2022-08-23T07:08:09.995Z,0.90
2022-08-23T07:09:09.265Z,0.90
2022-08-23T07:10:09.522Z,0.80
2022-08-23T07:11:09.251Z,1.10
2022-08-23T07:12:09.245Z,0.90
2022-08-23T07:13:09.216Z,0.90
2022-08-23T07:14:11.996Z,1.10
2022-08-23T07:15:15.983Z,0.80
2022-08-23T07:16:09.248Z,0.80
2022-08-23T07:17:09.212Z,0.60
2022-08-23T07:18:13.483Z,0.80
2022-08-23T07:19:09.211Z,1.00
2022-08-23T07:20:11.998Z,1.00
2022-08-23T07:21:09.146Z,1.00
2022-08-23T07:22:09.133Z,1.10
2022-08-23T07:23:09.135Z,0.80
2022-08-23T07:24:09.109Z,0.80
2022-08-23T07:25:09.991Z,1.10
2022-08-23T07:26:09.087Z,0.90
2022-08-23T07:27:09.053Z,0.90
2022-08-23T07:28:11.688Z,0.90
2022-08-23T07:29:09.522Z,1.00
2022-08-23T07:30:09.047Z,0.90
2022-08-23T07:31:14.744Z,0.80
2022-08-23T07:32:10.128Z,1.00
2022-08-23T07:33:10.059Z,1.00
2022-08-23T07:34:08.993Z,1.00
2022-08-23T07:35:08.984Z,0.90
2022-08-23T07:36:09.493Z,0.90
2022-08-23T07:37:15.448Z,1.00
2022-08-23T07:38:09.967Z,0.80
2022-08-23T07:39:09.500Z,1.10
2022-08-23T07:40:09.505Z,0.90
2022-08-23T07:41:09.921Z,1.10
2022-08-23T07:42:22.910Z,0.90
2022-08-23T07:43:24.493Z,1.00
2022-08-23T07:44:08.912Z,1.00
2022-08-23T07:45:10.015Z,0.80
2022-08-23T07:46:09.515Z,1.20
2022-08-23T07:47:08.869Z,0.80
2022-08-23T07:48:23.527Z,1.00
2022-08-23T07:49:09.824Z,0.90
2022-08-23T07:50:09.509Z,1.10
2022-08-23T07:51:08.824Z,0.90
2022-08-23T07:52:08.787Z,0.70
2022-08-23T07:53:09.512Z,0.80
2022-08-23T07:54:08.801Z,0.90
2022-08-23T07:55:08.778Z,0.90
2022-08-23T07:56:08.747Z,1.00
2022-08-23T07:57:09.503Z,0.90
2022-08-23T07:58:08.725Z,0.80
2022-08-23T07:59:34.558Z,0.90
2022-08-23T08:00:15.502Z,0.80
2022-08-23T08:01:08.696Z,0.60
2022-08-23T08:02:09.827Z,0.90
2022-08-23T08:03:09.156Z,0.70
2022-08-23T08:04:09.034Z,0.80
2022-08-23T08:05:08.686Z,0.60
2022-08-23T08:06:08.644Z,0.90
2022-08-23T08:07:19.220Z,0.80
2022-08-23T08:08:09.617Z,1.10
2022-08-23T08:09:08.606Z,0.90
2022-08-23T08:10:08.624Z,0.80
2022-08-23T08:11:09.501Z,0.70
2022-08-23T08:12:08.580Z,0.70
2022-08-23T08:13:08.564Z,0.70
2022-08-23T08:14:09.032Z,0.80
2022-08-23T08:15:09.036Z,0.90
2022-08-23T08:16:11.599Z,0.80
2022-08-23T08:17:08.517Z,0.80
2022-08-23T08:18:08.515Z,0.80
2022-08-23T08:19:08.500Z,0.70
2022-08-23T08:20:08.496Z,0.70
2022-08-23T08:21:08.497Z,0.60
2022-08-23T08:22:08.465Z,0.60
2022-08-23T08:23:11.000Z,1.40
2022-08-23T08:24:08.453Z,1.00
2022-08-23T08:25:08.449Z,0.90
2022-08-23T08:26:08.426Z,0.80
2022-08-23T08:27:08.420Z,0.90
2022-08-23T08:28:11.585Z,0.80
2022-08-23T08:29:10.507Z,0.70
2022-08-23T08:30:08.549Z,0.80
2022-08-23T08:31:08.426Z,0.90
2022-08-23T08:32:08.386Z,0.70
2022-08-23T08:33:09.366Z,0.70
2022-08-23T08:34:08.332Z,0.70
2022-08-23T08:35:08.366Z,0.90
2022-08-23T08:36:08.537Z,0.90
2022-08-23T08:37:08.309Z,0.90
2022-08-23T08:38:09.006Z,0.80
2022-08-23T08:39:08.280Z,0.80
2022-08-23T08:40:08.296Z,0.80
2022-08-23T08:41:08.532Z,0.80
2022-08-23T08:42:08.249Z,0.70
2022-08-23T08:43:09.004Z,0.90
2022-08-23T08:44:08.227Z,0.90
2022-08-23T08:45:08.234Z,0.90
2022-08-23T08:46:08.245Z,0.80
2022-08-23T08:47:08.202Z,0.70
2022-08-23T08:48:12.704Z,0.70
2022-08-23T08:49:09.257Z,1.10
2022-08-23T08:50:08.162Z,0.90
2022-08-23T08:51:08.541Z,0.90
2022-08-23T08:52:08.163Z,0.70
2022-08-23T08:53:08.127Z,0.80
2022-08-23T08:54:08.148Z,0.60
2022-08-23T08:55:08.104Z,0.90
2022-08-23T08:56:11.015Z,0.80
2022-08-23T08:57:10.014Z,0.80
2022-08-23T08:58:08.104Z,0.70
2022-08-23T08:59:08.065Z,0.80
2022-08-23T09:00:08.061Z,1.00
2022-08-23T09:01:08.041Z,0.90
2022-08-23T09:02:16.933Z,0.80
2022-08-23T09:03:09.077Z,0.90
2022-08-23T09:04:08.011Z,0.70
2022-08-23T09:05:07.995Z,0.70
2022-08-23T09:06:07.987Z,0.70
2022-08-23T09:07:07.977Z,0.80
2022-08-23T09:08:08.050Z,1.00
2022-08-23T09:09:07.983Z,0.90
2022-08-23T09:10:07.952Z,0.70
2022-08-23T09:11:14.545Z,0.80
2022-08-23T09:12:07.923Z,0.90
2022-08-23T09:13:08.542Z,1.20
2022-08-23T09:14:07.898Z,1.80
2022-08-23T09:15:07.918Z,0.90
2022-08-23T09:16:07.938Z,0.90
2022-08-23T09:17:08.507Z,0.80
2022-08-23T09:18:07.852Z,1.10
2022-08-23T09:19:08.524Z,1.00
2022-08-23T09:20:07.864Z,0.90
2022-08-23T09:21:07.833Z,1.00
2022-08-23T09:22:07.813Z,1.60
2022-08-23T09:23:07.801Z,0.90
2022-08-23T09:24:07.786Z,0.80
2022-08-23T09:25:10.221Z,1.10
2022-08-23T09:26:07.766Z,0.80
2022-08-23T09:27:07.765Z,0.80
2022-08-23T09:28:08.524Z,1.10
2022-08-23T09:29:07.751Z,0.70
2022-08-23T09:30:07.756Z,0.80
2022-08-23T09:31:08.834Z,0.80
2022-08-23T09:32:08.520Z,0.90
2022-08-23T09:33:08.696Z,0.80
2022-08-23T09:34:07.687Z,0.80
2022-08-23T09:35:07.691Z,0.80
2022-08-23T09:36:08.422Z,0.90
2022-08-23T09:37:10.521Z,0.90
2022-08-23T09:38:11.355Z,0.90
2022-08-23T09:39:07.674Z,0.80
2022-08-23T09:40:07.659Z,1.00
2022-08-23T09:41:07.633Z,0.80
2022-08-23T09:42:07.596Z,0.90
2022-08-23T09:43:07.589Z,0.90
2022-08-23T09:44:08.516Z,0.80
2022-08-23T09:45:07.587Z,0.90
2022-08-23T09:46:14.569Z,0.80
2022-08-23T09:47:08.057Z,1.00
2022-08-23T09:48:07.534Z,1.00
2022-08-23T09:49:10.525Z,0.80
2022-08-23T09:50:07.529Z,0.80
2022-08-23T09:51:07.528Z,0.80
2022-08-23T09:52:07.484Z,1.20
2022-08-23T09:53:07.510Z,0.70
2022-08-23T09:54:07.468Z,0.90
2022-08-23T09:55:14.026Z,0.70
2022-08-23T09:56:07.449Z,1.40
2022-08-23T09:57:07.462Z,0.70
2022-08-23T09:58:07.558Z,0.90
2022-08-23T09:59:08.024Z,1.00
2022-08-23T10:00:07.501Z,0.70
2022-08-23T10:01:07.438Z,0.70
2022-08-23T10:02:07.455Z,0.90
2022-08-23T10:03:07.660Z,0.80
2022-08-23T10:04:07.560Z,1.00
2022-08-23T10:05:07.981Z,1.00
2022-08-23T10:06:09.022Z,1.00
2022-08-23T10:07:07.332Z,0.80
2022-08-23T10:08:14.009Z,0.70
2022-08-23T10:09:07.324Z,0.80
2022-08-23T10:10:07.291Z,0.80
2022-08-23T10:11:08.017Z,0.90
2022-08-23T10:12:07.575Z,0.90
2022-08-23T10:13:08.033Z,1.10
2022-08-23T10:14:08.026Z,0.90
2022-08-23T10:15:08.549Z,1.20
2022-08-23T10:16:08.069Z,0.90
2022-08-23T10:17:07.212Z,0.70
2022-08-23T10:18:07.201Z,0.90
2022-08-23T10:19:07.192Z,0.90
2022-08-23T10:20:07.194Z,0.80
2022-08-23T10:21:07.179Z,0.80
2022-08-23T10:22:10.029Z,0.80
2022-08-23T10:23:07.155Z,1.10
2022-08-23T10:24:09.062Z,0.80
2022-08-23T10:25:08.032Z,1.10
2022-08-23T10:26:07.110Z,0.80
2022-08-23T10:27:08.030Z,0.80
2022-08-23T10:28:07.096Z,1.00
2022-08-23T10:29:07.090Z,0.90
2022-08-23T10:30:07.090Z,0.80
2022-08-23T10:31:07.635Z,0.80
2022-08-23T10:32:07.074Z,0.80
2022-08-23T10:33:08.081Z,1.00
2022-08-23T10:34:09.527Z,0.70
2022-08-23T10:35:07.018Z,0.90
2022-08-23T10:36:07.019Z,0.90
2022-08-23T10:37:07.028Z,0.90
2022-08-23T10:38:09.530Z,0.90
2022-08-23T10:39:06.990Z,0.80
2022-08-23T10:40:09.546Z,0.80
2022-08-23T10:41:07.535Z,0.70
2022-08-23T10:42:09.535Z,0.90
2022-08-23T10:43:06.952Z,0.80
2022-08-23T10:44:06.927Z,0.80
2022-08-23T10:45:06.914Z,0.90
2022-08-23T10:46:07.647Z,0.80
2022-08-23T10:47:07.535Z,0.70
2022-08-23T10:48:06.920Z,0.70
2022-08-23T10:49:06.869Z,0.70
2022-08-23T10:50:06.854Z,0.80
2022-08-23T10:51:06.853Z,0.90
2022-08-23T10:52:06.835Z,0.90
2022-08-23T10:53:07.545Z,0.80
2022-08-23T10:54:06.836Z,0.80
2022-08-23T10:55:06.809Z,1.30
2022-08-23T10:56:13.540Z,0.90
2022-08-23T10:57:06.784Z,0.80
2022-08-23T10:58:06.769Z,0.80
2022-08-23T10:59:06.779Z,0.70
2022-08-23T11:00:07.532Z,0.90
2022-08-23T11:01:06.783Z,0.70
2022-08-23T11:02:09.598Z,0.90
2022-08-23T11:03:06.723Z,0.60
2022-08-23T11:04:06.739Z,1.20
2022-08-23T11:05:07.754Z,0.90
2022-08-23T11:06:07.548Z,0.80
2022-08-23T11:07:06.673Z,0.70
2022-08-23T11:08:06.677Z,0.70
2022-08-23T11:09:09.540Z,0.90
2022-08-23T11:10:06.677Z,0.90
2022-08-23T11:11:07.632Z,1.10
2022-08-23T11:12:11.079Z,1.10
2022-08-23T11:13:06.627Z,0.90
2022-08-23T11:14:06.603Z,0.80
2022-08-23T11:15:06.612Z,1.00
2022-08-23T11:16:06.612Z,0.70
2022-08-23T11:17:06.565Z,0.80
2022-08-23T11:18:06.562Z,0.70
2022-08-23T11:19:09.545Z,1.00
2022-08-23T11:20:27.567Z,0.80
2022-08-23T11:21:06.532Z,0.90
2022-08-23T11:22:07.531Z,0.70
2022-08-23T11:23:06.504Z,0.70
2022-08-23T11:24:06.519Z,0.80
2022-08-23T11:25:06.505Z,1.00
2022-08-23T11:26:06.480Z,0.80
2022-08-23T11:27:07.229Z,0.80
2022-08-23T11:28:07.048Z,0.80
2022-08-23T11:29:06.439Z,0.90
2022-08-23T11:30:06.438Z,0.90
2022-08-23T11:31:06.452Z,0.90
2022-08-23T11:32:06.450Z,1.00
2022-08-23T11:33:07.040Z,0.60
2022-08-23T11:34:06.593Z,1.10
2022-08-23T11:35:09.060Z,0.90
2022-08-23T11:36:07.048Z,0.90
2022-08-23T11:37:06.359Z,0.90
2022-08-23T11:38:08.086Z,0.80
2022-08-23T11:39:13.043Z,0.80
2022-08-23T11:40:07.399Z,0.80
2022-08-23T11:41:13.048Z,0.90
2022-08-23T11:42:07.052Z,1.10
2022-08-23T11:43:06.312Z,0.90
2022-08-23T11:44:06.592Z,0.90
2022-08-23T11:45:06.267Z,0.80
2022-08-23T11:46:21.065Z,0.80
2022-08-23T11:47:06.581Z,0.90
2022-08-23T11:48:09.059Z,0.70
2022-08-23T11:49:06.245Z,0.80
2022-08-23T11:50:06.589Z,0.90
2022-08-23T11:51:06.222Z,0.80
2022-08-23T11:52:07.052Z,0.90
2022-08-23T11:53:06.184Z,1.00
2022-08-23T11:54:07.059Z,0.80
2022-08-23T11:55:09.581Z,0.80
2022-08-23T11:56:07.050Z,0.60
2022-08-23T11:57:06.140Z,1.10
2022-08-23T11:58:07.065Z,0.90
2022-08-23T11:59:08.677Z,0.80
2022-08-23T12:00:07.096Z,1.00
2022-08-23T12:01:06.100Z,0.90
2022-08-23T12:02:07.101Z,0.80
2022-08-23T12:03:09.155Z,0.70
2022-08-23T12:04:07.235Z,0.70
2022-08-23T12:05:06.496Z,0.70
2022-08-23T12:06:12.645Z,0.90
2022-08-23T12:07:06.554Z,0.80
2022-08-23T12:08:06.030Z,0.70
2022-08-23T12:09:06.556Z,1.00
2022-08-23T12:10:06.006Z,0.80
2022-08-23T12:11:16.588Z,0.80
2022-08-23T12:12:06.726Z,1.00
2022-08-23T12:13:06.573Z,0.90
2022-08-23T12:14:06.003Z,0.70
2022-08-23T12:15:06.639Z,0.90
2022-08-23T12:16:06.078Z,0.70
2022-08-23T12:17:06.575Z,0.80
2022-08-23T12:18:05.920Z,0.90
2022-08-23T12:19:06.602Z,0.70
2022-08-23T12:20:16.527Z,0.60
2022-08-23T12:21:09.556Z,0.70
2022-08-23T12:22:06.565Z,0.70
2022-08-23T12:23:06.654Z,1.00
2022-08-23T12:24:06.576Z,0.60
2022-08-23T12:25:05.875Z,0.80
2022-08-23T12:26:06.556Z,0.80
2022-08-23T12:27:06.558Z,0.80
2022-08-23T12:28:05.842Z,0.80
2022-08-23T12:29:06.561Z,0.80
2022-08-23T12:30:05.812Z,0.90
2022-08-23T12:31:07.856Z,0.70
2022-08-23T12:32:06.566Z,0.80
2022-08-23T12:33:06.562Z,1.00
2022-08-23T12:34:07.609Z,1.00
2022-08-23T12:35:06.561Z,0.90
2022-08-23T12:36:15.453Z,0.60
2022-08-23T12:37:09.467Z,0.90
2022-08-23T12:38:06.593Z,0.90
2022-08-23T12:39:06.571Z,0.80
2022-08-23T12:40:06.607Z,0.90
2022-08-23T12:41:05.691Z,0.80
2022-08-23T12:42:20.571Z,0.80
2022-08-23T12:43:05.658Z,0.80
2022-08-23T12:44:06.600Z,0.60
2022-08-23T12:45:05.641Z,0.80
2022-08-23T12:46:06.854Z,0.90
2022-08-23T12:47:05.606Z,0.80
2022-08-23T12:48:06.571Z,1.00
2022-08-23T12:49:06.570Z,0.80
2022-08-23T12:50:06.702Z,0.60
2022-08-23T12:51:05.572Z,1.20
2022-08-23T12:52:08.068Z,0.60
2022-08-23T12:53:06.068Z,0.70
2022-08-23T12:54:10.600Z,0.90
2022-08-23T12:55:05.534Z,0.80
2022-08-23T12:56:31.603Z,0.80
2022-08-23T12:57:06.513Z,0.80
2022-08-23T12:58:08.077Z,1.00
2022-08-23T12:59:05.491Z,0.80
2022-08-23T13:00:16.640Z,0.90
2022-08-23T13:01:07.134Z,0.80
2022-08-23T13:02:05.466Z,0.90
2022-08-23T13:03:08.134Z,0.70
2022-08-23T13:04:05.475Z,0.90
2022-08-23T13:05:13.208Z,0.70
2022-08-23T13:06:06.414Z,0.60
2022-08-23T13:07:08.078Z,1.00
2022-08-23T13:08:05.399Z,0.80
2022-08-23T13:09:08.087Z,0.90
2022-08-23T13:10:05.533Z,0.60
2022-08-23T13:11:08.770Z,0.90
2022-08-23T13:12:05.379Z,0.90
2022-08-23T13:13:08.083Z,0.80
2022-08-23T13:14:05.368Z,0.70
2022-08-23T13:15:08.126Z,0.80
2022-08-23T13:16:05.421Z,0.90
2022-08-23T13:17:07.370Z,1.10
2022-08-23T13:18:08.075Z,0.70